Time;durP1;ratioP1;P1;durP2;ratioP2;P2;SDS_P1;SDS_P2;PMS_P1;PMS_P2;Temp;Humidity;BMP_temperature;BMP_pressure;BME280_temperature;BME280_humidity;BME280_pressure;Samples;Min_cycle;Max_cycle;Signal;HPM_P1;HPM_P2
2022/05/21 00:02:21;;;;;;;5.00;4.30;;;;;18.50;101729.00;;;;5074227;28;20211;-78
2022/05/21 00:04:48;;;;;;;4.82;4.15;;;;;18.50;101726.00;;;;5078936;28;20267;-78
2022/05/21 00:07:16;;;;;;;4.90;4.38;;;;;18.60;101726.00;;;;5087613;28;20203;-76
2022/05/21 00:09:43;;;;;;;6.60;4.55;;;;;18.60;101731.00;;;;5091580;28;20674;-76
2022/05/21 00:12:11;;;;;;;5.45;4.63;;;;;18.60;101726.00;;;;5090805;28;20202;-76
2022/05/21 00:14:38;;;;;;;8.82;5.00;;;;;18.60;101722.00;;;;5082128;28;20194;-76
2022/05/21 00:17:07;;;;;;;7.65;5.07;;;;;18.60;101719.00;;;;5075368;28;20572;-77
2022/05/21 00:19:34;;;;;;;6.97;4.68;;;;;18.70;101725.00;;;;5083111;28;20252;-76
2022/05/21 00:22:01;;;;;;;6.82;4.90;;;;;18.70;101733.00;;;;5089209;28;20198;-77
2022/05/21 00:24:29;;;;;;;8.27;5.53;;;;;18.70;101725.00;;;;5088593;28;20256;-77
2022/05/21 00:26:56;;;;;;;7.95;4.82;;;;;18.70;101718.00;;;;5079818;28;20281;-77
2022/05/21 00:29:26;;;;;;;6.38;4.20;;;;;18.70;101719.00;;;;5071047;28;20204;-77
2022/05/21 00:31:54;;;;;;;6.22;5.43;;;;;18.70;101726.00;;;;5074391;28;20202;-77
2022/05/21 00:34:22;;;;;;;7.32;5.13;;;;;18.70;101720.00;;;;5071735;28;20199;-77
2022/05/21 00:36:50;;;;;;;4.70;3.97;;;;;18.80;101717.00;;;;5070825;28;20203;-77
2022/05/21 00:39:17;;;;;;;5.97;4.63;;;;;18.80;101714.00;;;;5088657;28;20293;-77
2022/05/21 00:41:44;;;;;;;6.32;4.35;;;;;18.80;101718.00;;;;5090461;28;20233;-77
2022/05/21 00:44:14;;;;;;;5.78;4.20;;;;;18.80;101716.00;;;;5084344;28;20219;-77
2022/05/21 00:46:43;;;;;;;8.95;4.68;;;;;18.80;101716.00;;;;5073440;28;20198;-77
2022/05/21 00:49:15;;;;;;;5.28;4.65;;;;;18.80;101726.00;;;;5089555;28;20198;-77
2022/05/21 00:51:46;;;;;;;5.80;4.13;;;;;18.80;101717.00;;;;5086433;28;20195;-77
2022/05/21 00:54:16;;;;;;;4.10;3.67;;;;;18.80;101723.00;;;;5079055;28;20209;-77
2022/05/21 00:56:47;;;;;;;4.15;3.67;;;;;18.80;101732.00;;;;5090158;28;20207;-77
2022/05/21 01:02:03;;;;;;;6.30;3.45;;;;;18.80;101728.00;;;;5086455;28;20210;-78
2022/05/21 01:04:32;;;;;;;8.52;4.38;;;;;18.80;101729.00;;;;5081148;28;20225;-77
2022/05/21 01:07:03;;;;;;;4.43;3.72;;;;;18.80;101724.00;;;;5088213;28;20190;-78
2022/05/21 01:09:31;;;;;;;5.57;3.95;;;;;18.90;101723.00;;;;5090897;28;20209;-78
2022/05/21 01:11:59;;;;;;;6.00;3.78;;;;;18.90;101720.00;;;;5089495;28;20245;-77
2022/05/21 01:14:26;;;;;;;6.00;4.13;;;;;18.90;101727.00;;;;5082004;28;20270;-78
2022/05/21 01:16:53;;;;;;;5.43;4.35;;;;;18.90;101719.00;;;;5086709;28;20661;-77
2022/05/21 01:19:21;;;;;;;4.45;3.45;;;;;18.90;101727.00;;;;5085649;28;20552;-78
2022/05/21 01:21:48;;;;;;;9.95;4.60;;;;;18.90;101720.00;;;;5085436;28;20198;-78
2022/05/21 01:24:16;;;;;;;6.78;3.65;;;;;18.90;101721.00;;;;5087082;28;21054;-78
2022/05/21 01:26:44;;;;;;;6.25;3.55;;;;;19.00;101713.00;;;;5089029;28;20194;-78
2022/05/21 01:29:17;;;;;;;6.88;4.15;;;;;18.90;101716.00;;;;5088510;28;20206;-78
2022/05/21 01:31:50;;;;;;;5.60;3.83;;;;;18.90;101714.00;;;;5072420;28;20191;-78
2022/05/21 01:34:18;;;;;;;5.45;3.88;;;;;19.00;101718.00;;;;5090228;28;20206;-77
2022/05/21 01:36:46;;;;;;;6.32;4.15;;;;;19.00;101715.00;;;;5089154;28;20195;-77
2022/05/21 01:39:13;;;;;;;6.10;3.42;;;;;19.00;101710.00;;;;5091238;28;20580;-77
2022/05/21 01:41:44;;;;;;;4.35;3.53;;;;;19.00;101713.00;;;;5073809;28;20218;-77
2022/05/21 01:46:57;;;;;;;4.90;3.75;;;;;19.00;101716.00;;;;5089670;28;20231;-77
2022/05/21 01:49:24;;;;;;;7.63;3.80;;;;;19.00;101713.00;;;;5087913;28;20210;-77
2022/05/21 01:51:52;;;;;;;7.28;4.13;;;;;19.00;101716.00;;;;5087393;28;20190;-77
2022/05/21 01:54:19;;;;;;;7.55;4.15;;;;;19.00;101714.00;;;;5076381;28;20186;-77
2022/05/21 01:56:47;;;;;;;5.38;3.53;;;;;19.00;101722.00;;;;5088616;28;20783;-76
2022/05/21 01:59:15;;;;;;;6.20;3.33;;;;;19.00;101716.00;;;;5086822;28;20202;-77
2022/05/21 02:01:42;;;;;;;5.65;3.90;;;;;19.00;101708.00;;;;5089438;28;20201;-77
2022/05/21 02:04:09;;;;;;;5.78;4.32;;;;;19.10;101717.00;;;;5088914;28;20224;-77
2022/05/21 02:06:36;;;;;;;6.45;3.90;;;;;19.00;101711.00;;;;5088721;28;20249;-78
2022/05/21 02:09:04;;;;;;;5.75;3.33;;;;;19.00;101711.00;;;;5080622;28;20213;-77
2022/05/21 02:11:31;;;;;;;6.57;4.53;;;;;19.10;101705.00;;;;5078384;28;20684;-78
2022/05/21 02:14:00;;;;;;;6.15;3.40;;;;;19.00;101712.00;;;;5079761;28;20251;-77
2022/05/21 02:16:28;;;;;;;7.65;3.85;;;;;19.10;101719.00;;;;5085774;28;20202;-77
2022/05/21 02:18:55;;;;;;;4.85;3.47;;;;;19.10;101710.00;;;;5082084;28;20388;-77
2022/05/21 02:21:22;;;;;;;6.13;3.63;;;;;19.10;101710.00;;;;5086836;28;20243;-78
2022/05/21 02:23:50;;;;;;;8.82;3.58;;;;;19.10;101711.00;;;;5082711;28;20256;-78
2022/05/21 02:26:17;;;;;;;5.15;3.55;;;;;19.10;101708.00;;;;5088753;28;20748;-77
2022/05/21 02:28:44;;;;;;;4.72;3.33;;;;;19.10;101712.00;;;;5088562;28;20207;-77
2022/05/21 02:31:15;;;;;;;7.50;3.22;;;;;19.00;101719.00;;;;5089731;28;20202;-78
2022/05/21 02:33:43;;;;;;;8.80;4.07;;;;;19.10;101716.00;;;;5089120;28;20209;-77
2022/05/21 02:36:11;;;;;;;7.25;3.20;;;;;19.10;101716.00;;;;5088535;28;20285;-78
2022/05/21 02:41:24;;;;;;;4.38;2.75;;;;;19.10;101720.00;;;;5088628;28;20359;-77
2022/05/21 02:43:51;;;;;;;6.25;4.10;;;;;19.10;101723.00;;;;5086274;28;20194;-77
2022/05/21 02:46:20;;;;;;;4.85;2.97;;;;;19.10;101716.00;;;;5088946;28;20222;-77
2022/05/21 02:48:47;;;;;;;9.55;3.92;;;;;19.10;101720.00;;;;5075255;28;20206;-77
2022/05/21 02:51:15;;;;;;;6.95;4.32;;;;;19.10;101718.00;;;;5082855;28;20687;-78
2022/05/21 02:53:42;;;;;;;5.30;3.47;;;;;19.10;101717.00;;;;5087706;28;20209;-78
2022/05/21 02:56:13;;;;;;;4.88;3.67;;;;;19.10;101726.00;;;;5081846;28;20202;-77
2022/05/21 02:58:41;;;;;;;6.18;4.05;;;;;19.10;101724.00;;;;5088173;28;20281;-77
2022/05/21 03:01:08;;;;;;;6.60;4.18;;;;;19.10;101721.00;;;;5099189;28;20276;-77
2022/05/21 03:03:37;;;;;;;5.57;3.80;;;;;19.10;101722.00;;;;5096440;28;20221;-78
2022/05/21 03:06:04;;;;;;;5.53;3.50;;;;;19.10;101722.00;;;;5082511;28;20573;-77
2022/05/21 03:11:16;;;;;;;6.20;3.65;;;;;19.10;101722.00;;;;5089641;28;20410;-77
2022/05/21 03:13:43;;;;;;;9.90;4.18;;;;;19.10;101722.00;;;;5085002;28;20722;-78
2022/05/21 03:16:11;;;;;;;7.47;3.70;;;;;19.10;101714.00;;;;5087228;28;20201;-77
2022/05/21 03:18:40;;;;;;;10.43;3.90;;;;;19.10;101720.00;;;;5086684;28;20194;-78
2022/05/21 03:21:07;;;;;;;9.15;3.72;;;;;19.10;101717.00;;;;5075007;28;20673;-77
2022/05/21 03:23:34;;;;;;;7.35;3.97;;;;;19.10;101724.00;;;;5071849;28;20194;-77
2022/05/21 03:26:02;;;;;;;5.53;3.53;;;;;19.10;101727.00;;;;5073680;28;20696;-77
2022/05/21 03:28:29;;;;;;;5.78;3.85;;;;;19.10;101718.00;;;;5086153;28;20198;-78
2022/05/21 03:30:56;;;;;;;10.07;3.35;;;;;19.10;101726.00;;;;5070892;28;20202;-77
2022/05/21 03:33:24;;;;;;;5.93;3.70;;;;;19.10;101724.00;;;;5086735;28;20568;-77
2022/05/21 03:35:52;;;;;;;7.07;3.35;;;;;19.10;101724.00;;;;5089219;28;20198;-77
2022/05/21 03:38:19;;;;;;;5.20;3.25;;;;;19.10;101720.00;;;;5069995;28;20580;-77
2022/05/21 03:40:47;;;;;;;4.35;3.33;;;;;19.10;101730.00;;;;5082962;28;20316;-77
2022/05/21 03:43:15;;;;;;;5.80;3.40;;;;;19.10;101725.00;;;;5073020;28;20198;-77
2022/05/21 03:45:42;;;;;;;5.10;3.10;;;;;19.10;101727.00;;;;5068821;28;20720;-77
2022/05/21 03:48:10;;;;;;;7.68;3.45;;;;;19.10;101726.00;;;;5083856;28;20213;-77
2022/05/21 03:50:38;;;;;;;4.65;3.10;;;;;19.10;101732.00;;;;5086485;28;20248;-77
2022/05/21 03:53:09;;;;;;;5.30;3.30;;;;;19.10;101732.00;;;;5071232;28;20252;-77
2022/05/21 03:55:37;;;;;;;6.65;2.75;;;;;19.10;101734.00;;;;5089266;28;20198;-77
2022/05/21 03:58:04;;;;;;;7.78;3.45;;;;;19.10;101735.00;;;;5088298;28;20220;-77
2022/05/21 04:00:32;;;;;;;7.47;2.92;;;;;19.10;101740.00;;;;5085116;28;20198;-77
2022/05/21 04:03:01;;;;;;;7.40;3.08;;;;;19.10;101735.00;;;;5086512;28;20209;-78
2022/05/21 04:05:28;;;;;;;7.65;3.40;;;;;19.00;101738.00;;;;5084459;28;20222;-77
2022/05/21 04:07:55;;;;;;;7.88;3.03;;;;;19.00;101746.00;;;;5087718;28;20195;-77
2022/05/21 04:10:24;;;;;;;8.05;3.20;;;;;19.00;101746.00;;;;5086803;28;20201;-78
2022/05/21 04:12:51;;;;;;;6.40;2.10;;;;;19.00;101749.00;;;;5073110;28;20187;-77
2022/05/21 04:15:18;;;;;;;6.93;1.95;;;;;19.00;101747.00;;;;5068355;28;20206;-77
2022/05/21 04:17:46;;;;;;;6.25;1.98;;;;;19.00;101754.00;;;;5084411;28;20198;-77
2022/05/21 04:20:16;;;;;;;5.38;2.33;;;;;19.00;101750.00;;;;5086339;28;20678;-77
2022/05/21 04:22:44;;;;;;;4.97;2.05;;;;;19.00;101745.00;;;;5087647;28;20629;-77
2022/05/21 04:25:11;;;;;;;4.63;1.77;;;;;19.00;101756.00;;;;5081822;28;20202;-77
2022/05/21 04:27:41;;;;;;;6.63;2.05;;;;;19.00;101760.00;;;;5067540;28;20195;-77
2022/05/21 04:30:11;;;;;;;4.32;1.75;;;;;19.00;101756.00;;;;5084547;28;20199;-77
2022/05/21 04:32:39;;;;;;;4.28;1.85;;;;;19.00;101756.00;;;;5082860;28;20194;-77
2022/05/21 04:35:07;;;;;;;4.20;1.52;;;;;19.00;101759.00;;;;5085428;28;20205;-77
2022/05/21 04:37:37;;;;;;;10.73;2.17;;;;;19.00;101758.00;;;;5070562;28;20195;-77
2022/05/21 04:40:05;;;;;;;4.63;1.70;;;;;19.00;101756.00;;;;5086626;28;20309;-78
2022/05/21 04:42:33;;;;;;;9.07;1.83;;;;;19.00;101762.00;;;;5080917;28;20209;-78
2022/05/21 04:45:01;;;;;;;7.60;1.60;;;;;19.00;101772.00;;;;5076508;28;20198;-77
2022/05/21 04:47:28;;;;;;;7.95;2.42;;;;;19.00;101768.00;;;;5073589;28;20214;-77
2022/05/21 04:49:57;;;;;;;9.35;2.83;;;;;19.00;101772.00;;;;5084832;28;20522;-77
2022/05/21 04:52:24;;;;;;;4.82;1.20;;;;;19.00;101778.00;;;;5088861;28;20221;-77
2022/05/21 04:54:52;;;;;;;7.05;1.48;;;;;19.00;101778.00;;;;5088482;28;20194;-78
2022/05/21 04:57:19;;;;;;;5.03;1.13;;;;;19.00;101773.00;;;;5081636;28;20715;-79
2022/05/21 04:59:47;;;;;;;5.90;1.30;;;;;19.10;101779.00;;;;5089701;28;20235;-78
2022/05/21 05:02:15;;;;;;;3.80;1.13;;;;;19.10;101778.00;;;;5090972;28;20282;-79
2022/05/21 05:04:43;;;;;;;8.00;1.80;;;;;19.10;101781.00;;;;5081927;28;20203;-79
2022/05/21 05:07:12;;;;;;;4.30;1.10;;;;;19.10;101781.00;;;;5088666;28;20218;-78
2022/05/21 05:09:41;;;;;;;10.07;1.92;;;;;19.20;101788.00;;;;5091315;28;20206;-78
2022/05/21 05:12:09;;;;;;;5.43;1.38;;;;;19.20;101784.00;;;;5090647;28;20202;-78
2022/05/21 05:14:36;;;;;;;4.18;1.17;;;;;19.20;101790.00;;;;5089272;28;20215;-77
2022/05/21 05:17:04;;;;;;;4.07;1.17;;;;;19.30;101793.00;;;;5089884;28;20202;-78
2022/05/21 05:19:33;;;;;;;8.85;1.73;;;;;19.30;101801.00;;;;5089574;28;20206;-78
2022/05/21 05:22:00;;;;;;;7.88;1.83;;;;;19.30;101797.00;;;;5083513;28;20195;-78
2022/05/21 05:24:28;;;;;;;5.65;1.33;;;;;19.40;101803.00;;;;5074809;28;20206;-78
2022/05/21 05:26:55;;;;;;;3.72;1.25;;;;;19.40;101815.00;;;;5086595;28;20233;-79
2022/05/21 05:29:22;;;;;;;6.78;1.50;;;;;19.50;101812.00;;;;5085029;28;20191;-79
2022/05/21 05:31:49;;;;;;;4.72;1.45;;;;;19.50;101809.00;;;;5088098;28;20208;-79
2022/05/21 05:34:17;;;;;;;8.57;1.33;;;;;19.60;101810.00;;;;5087267;28;20213;-80
2022/05/21 05:36:47;;;;;;;6.43;1.60;;;;;19.60;101807.00;;;;5085594;28;20190;-80
2022/05/21 05:39:14;;;;;;;4.60;1.38;;;;;19.60;101806.00;;;;5084554;28;20697;-80
2022/05/21 05:41:41;;;;;;;4.30;1.52;;;;;19.60;101816.00;;;;5086112;28;20226;-80
2022/05/21 05:44:10;;;;;;;2.70;0.90;;;;;19.70;101817.00;;;;5083366;28;20709;-80
2022/05/21 05:46:37;;;;;;;5.72;1.45;;;;;19.70;101819.00;;;;5084478;28;20222;-81
2022/05/21 05:49:04;;;;;;;7.13;1.67;;;;;19.70;101819.00;;;;5081940;28;20209;-82
2022/05/21 05:51:38;;;;;;;5.00;1.13;;;;;19.70;101808.00;;;;5087907;28;20541;-80
2022/05/21 05:54:06;;;;;;;4.50;1.25;;;;;19.80;101819.00;;;;5089211;28;20570;-82
2022/05/21 05:56:35;;;;;;;3.97;1.10;;;;;19.80;101819.00;;;;5086632;28;20210;-80
2022/05/21 06:02:57;;;;;;;5.00;1.30;;;;;19.90;101828.00;;;;5086454;28;20250;-80
2022/05/21 06:04:37;;;;;;;6.72;1.85;;;;;20.00;101825.00;;;;5085299;28;20556;-82
2022/05/21 06:07:06;;;;;;;5.90;1.30;;;;;20.00;101826.00;;;;5084647;28;20596;-81
2022/05/21 06:09:35;;;;;;;4.93;1.25;;;;;20.00;101831.00;;;;5085527;28;20217;-80
2022/05/21 06:12:03;;;;;;;5.93;1.90;;;;;20.10;101824.00;;;;5090256;28;20213;-80
2022/05/21 06:14:35;;;;;;;4.63;1.20;;;;;20.20;101829.00;;;;5078177;28;20767;-80
2022/05/21 06:17:02;;;;;;;7.65;1.27;;;;;20.20;101824.00;;;;5088695;28;20711;-79
2022/05/21 06:19:30;;;;;;;4.85;1.45;;;;;20.30;101830.00;;;;5081759;28;20199;-78
2022/05/21 06:21:58;;;;;;;5.82;1.95;;;;;20.40;101835.00;;;;5089687;28;20213;-79
2022/05/21 06:24:26;;;;;;;6.25;1.42;;;;;20.40;101838.00;;;;5089606;28;20194;-79
2022/05/21 06:26:56;;;;;;;5.07;1.50;;;;;20.50;101839.00;;;;5087140;28;20229;-79
2022/05/21 06:29:23;;;;;;;6.78;1.08;;;;;20.50;101838.00;;;;5078009;28;20214;-79
2022/05/21 06:31:51;;;;;;;9.27;1.88;;;;;20.60;101838.00;;;;5084107;28;20195;-79
2022/05/21 06:34:18;;;;;;;3.83;1.13;;;;;20.60;101830.00;;;;5087547;28;20206;-79
2022/05/21 06:36:46;;;;;;;6.82;1.38;;;;;20.60;101847.00;;;;5084928;28;20243;-79
2022/05/21 06:39:13;;;;;;;7.57;2.05;;;;;20.70;101850.00;;;;5097069;28;20197;-81
2022/05/21 06:41:40;;;;;;;7.65;1.52;;;;;20.70;101857.00;;;;5073930;28;20215;-80
2022/05/21 06:44:09;;;;;;;3.33;0.95;;;;;20.70;101847.00;;;;5080497;28;21139;-79
2022/05/21 06:46:37;;;;;;;9.60;1.77;;;;;20.80;101853.00;;;;5084658;28;20224;-80
2022/05/21 06:49:05;;;;;;;9.05;1.73;;;;;20.80;101862.00;;;;5078917;28;20290;-80
2022/05/21 06:51:32;;;;;;;7.80;2.05;;;;;20.90;101864.00;;;;5082946;28;20206;-79
2022/05/21 06:53:59;;;;;;;10.60;1.50;;;;;21.00;101855.00;;;;5085760;28;20197;-80
2022/05/21 06:56:27;;;;;;;5.55;1.08;;;;;21.00;101865.00;;;;5086132;28;20272;-81
2022/05/21 06:58:54;;;;;;;4.03;1.00;;;;;21.10;101870.00;;;;5085407;28;20570;-81
2022/05/21 07:01:23;;;;;;;3.75;1.00;;;;;21.20;101873.00;;;;5083155;28;20940;-79
2022/05/21 07:03:51;;;;;;;9.23;2.10;;;;;21.20;101871.00;;;;5080991;28;20210;-81
2022/05/21 07:09:03;;;;;;;5.15;1.20;;;;;21.30;101876.00;;;;5083834;28;20197;-81
2022/05/21 07:11:32;;;;;;;6.60;1.63;;;;;21.40;101878.00;;;;5084185;28;20216;-81
2022/05/21 07:14:02;;;;;;;4.20;1.42;;;;;21.40;101886.00;;;;5082618;28;20226;-82
2022/05/21 07:16:32;;;;;;;4.95;1.60;;;;;21.40;101877.00;;;;5086493;28;20190;-84
2022/05/21 07:18:59;;;;;;;5.55;1.05;;;;;21.50;101883.00;;;;5080287;28;20203;-82
2022/05/21 07:21:26;;;;;;;5.93;1.10;;;;;21.60;101889.00;;;;5085475;28;20314;-81
2022/05/21 07:23:54;;;;;;;3.88;0.90;;;;;21.70;101899.00;;;;5086340;28;20191;-81
2022/05/21 07:26:21;;;;;;;6.55;1.55;;;;;21.70;101895.00;;;;5079524;28;20229;-82
2022/05/21 07:28:48;;;;;;;7.13;1.23;;;;;21.70;101897.00;;;;5067845;28;20649;-82
2022/05/21 07:31:16;;;;;;;6.32;0.80;;;;;21.70;101896.00;;;;5084907;28;20198;-80
2022/05/21 07:33:44;;;;;;;5.22;1.65;;;;;21.80;101900.00;;;;5082189;28;20562;-80
2022/05/21 07:36:12;;;;;;;3.40;1.13;;;;;21.90;101902.00;;;;5082378;28;20206;-82
2022/05/21 07:38:39;;;;;;;5.15;1.33;;;;;22.00;101913.00;;;;5081711;28;20217;-82
2022/05/21 07:41:07;;;;;;;4.85;0.88;;;;;22.10;101915.00;;;;5080237;28;20284;-82
2022/05/21 07:43:34;;;;;;;5.15;1.27;;;;;22.10;101920.00;;;;5073466;28;20191;-83
2022/05/21 07:46:02;;;;;;;6.10;1.40;;;;;22.10;101920.00;;;;5071120;28;20668;-82
2022/05/21 07:48:30;;;;;;;4.68;0.93;;;;;22.20;101909.00;;;;5083898;28;20199;-83
2022/05/21 07:51:01;;;;;;;2.08;0.63;;;;;22.30;101916.00;;;;5080073;28;20194;-83
2022/05/21 07:53:31;;;;;;;4.45;1.13;;;;;22.40;101920.00;;;;5084625;28;20289;-82
2022/05/21 07:55:59;;;;;;;3.42;1.40;;;;;22.50;101937.00;;;;5087584;28;20199;-80
2022/05/21 07:58:30;;;;;;;8.00;1.08;;;;;22.50;101921.00;;;;5086425;28;20222;-81
2022/05/21 08:00:58;;;;;;;4.55;1.20;;;;;22.50;101922.00;;;;5079857;28;20264;-82
2022/05/21 08:03:26;;;;;;;8.65;2.72;;;;;22.50;101924.00;;;;5087630;28;20973;-82
2022/05/21 08:05:53;;;;;;;3.80;1.02;;;;;22.60;101932.00;;;;5080327;28;20206;-81
2022/05/21 08:08:22;;;;;;;4.85;0.90;;;;;22.60;101932.00;;;;5080716;28;20610;-82
2022/05/21 08:10:50;;;;;;;3.85;1.20;;;;;22.60;101936.00;;;;5076198;28;20277;-82
2022/05/21 08:13:18;;;;;;;4.75;1.05;;;;;22.60;101938.00;;;;5086075;28;20309;-81
2022/05/21 08:15:45;;;;;;;3.15;0.80;;;;;22.60;101939.00;;;;5085135;28;20231;-81
2022/05/21 08:18:13;;;;;;;8.52;1.30;;;;;22.60;101943.00;;;;5081836;28;20206;-81
2022/05/21 08:20:41;;;;;;;3.08;0.82;;;;;22.60;101956.00;;;;5084087;28;20225;-83
2022/05/21 08:28:45;;;;;;;2.80;0.95;;;;;22.70;101946.00;;;;5089884;28;20304;-83
2022/05/21 08:31:13;;;;;;;2.55;1.00;;;;;22.70;101946.00;;;;5078336;28;20195;-83
2022/05/21 08:33:40;;;;;;;3.08;1.00;;;;;22.70;101950.00;;;;5071470;28;20202;-82
2022/05/21 08:36:07;;;;;;;5.18;1.23;;;;;22.80;101950.00;;;;5072778;28;20202;-84
2022/05/21 08:38:35;;;;;;;7.85;1.67;;;;;22.80;101946.00;;;;5089848;28;20210;-83
2022/05/21 08:41:06;;;;;;;5.38;1.63;;;;;22.80;101946.00;;;;5072814;28;20238;-83
2022/05/21 08:43:48;;;;;;;3.60;1.10;;;;;22.70;101963.00;;;;5072543;28;20202;-83
2022/05/21 08:46:27;;;;;;;3.42;1.08;;;;;22.70;101955.00;;;;5087441;28;20295;-82
2022/05/21 08:49:02;;;;;;;4.45;1.33;;;;;22.70;101956.00;;;;5078298;28;20202;-83
2022/05/21 08:51:33;;;;;;;2.75;1.52;;;;;22.70;101960.00;;;;5071647;28;20576;-82
2022/05/21 08:54:03;;;;;;;5.85;1.15;;;;;22.70;101950.00;;;;5071856;28;20218;-81
2022/05/21 08:56:32;;;;;;;6.47;1.05;;;;;22.70;101960.00;;;;5082466;28;20277;-81
2022/05/21 08:59:05;;;;;;;7.72;1.33;;;;;22.70;101952.00;;;;5090832;28;20194;-82
2022/05/21 09:01:35;;;;;;;7.15;1.15;;;;;22.70;101956.00;;;;5075233;28;20699;-83
2022/05/21 09:04:04;;;;;;;9.00;1.30;;;;;22.70;101955.00;;;;5083289;28;20293;-79
2022/05/21 09:06:39;;;;;;;4.93;1.10;;;;;22.60;101953.00;;;;5091276;28;20205;-80
2022/05/21 09:09:19;;;;;;;4.07;0.90;;;;;22.60;101955.00;;;;5090881;28;20201;-79
2022/05/21 09:11:51;;;;;;;2.58;0.93;;;;;22.60;101947.00;;;;5090891;28;20202;-79
2022/05/21 09:14:30;;;;;;;3.90;1.00;;;;;22.60;101944.00;;;;5091332;28;20197;-79
2022/05/21 09:16:56;;;;;;;5.32;1.33;;;;;22.70;101946.00;;;;5091052;28;20206;-80
2022/05/21 09:19:25;;;;;;;5.38;1.45;;;;;22.70;101941.00;;;;5074292;28;20782;-78
2022/05/21 09:22:02;;;;;;;5.53;0.90;;;;;22.70;101946.00;;;;5070608;28;20653;-79
2022/05/21 09:24:39;;;;;;;4.78;1.20;;;;;22.80;101952.00;;;;5086917;28;20190;-79
2022/05/21 09:27:27;;;;;;;4.68;1.30;;;;;22.80;101948.00;;;;5088767;28;20224;-79
2022/05/21 09:30:11;;;;;;;6.18;1.23;;;;;22.90;101951.00;;;;5086435;28;20194;-79
2022/05/21 09:32:39;;;;;;;3.88;0.70;;;;;22.90;101957.00;;;;5087692;28;20281;-80
2022/05/21 09:35:09;;;;;;;1.55;0.95;;;;;22.90;101961.00;;;;5091087;28;20209;-79
2022/05/21 09:37:36;;;;;;;3.20;1.17;;;;;23.00;101957.00;;;;5090871;28;20206;-80
2022/05/21 09:40:30;;;;;;;6.03;1.48;;;;;22.90;101957.00;;;;5090910;28;20288;-80
2022/05/21 09:45:46;;;;;;;7.65;1.73;;;;;23.10;101957.00;;;;5086366;28;20266;-80
2022/05/21 09:48:22;;;;;;;7.13;1.85;;;;;23.10;101957.00;;;;5076486;28;20720;-79
2022/05/21 09:50:53;;;;;;;4.05;1.25;;;;;23.20;101966.00;;;;5070468;28;20199;-80
2022/05/21 09:53:39;;;;;;;4.38;1.13;;;;;23.10;101966.00;;;;5077144;28;20209;-79
2022/05/21 09:56:09;;;;;;;3.97;1.00;;;;;23.30;101960.00;;;;5089503;28;20198;-80
2022/05/21 09:58:41;;;;;;;3.40;1.42;;;;;23.30;101968.00;;;;5090459;28;20206;-79
2022/05/21 10:01:13;;;;;;;1.98;0.95;;;;;23.30;101967.00;;;;5084442;28;20691;-80
2022/05/21 10:03:45;;;;;;;3.40;0.90;;;;;23.30;101969.00;;;;5086704;28;20202;-79
2022/05/21 10:06:25;;;;;;;3.67;1.30;;;;;23.30;101968.00;;;;5089367;28;20263;-80
2022/05/21 10:11:49;;;;;;;3.28;1.08;;;;;23.40;101965.00;;;;5088857;28;20268;-78
2022/05/21 10:14:23;;;;;;;6.07;1.30;;;;;23.50;101970.00;;;;5086367;28;20201;-78
2022/05/21 10:16:55;;;;;;;3.67;0.93;;;;;23.50;101978.00;;;;5089879;28;20195;-79
2022/05/21 10:19:30;;;;;;;3.40;1.40;;;;;23.60;101979.00;;;;5086404;28;20197;-78
2022/05/21 10:22:11;;;;;;;2.53;0.80;;;;;23.60;101973.00;;;;5077307;28;20226;-78
2022/05/21 10:24:51;;;;;;;4.03;1.10;;;;;23.60;101986.00;;;;5082678;28;20263;-79
2022/05/21 10:27:47;;;;;;;3.33;0.90;;;;;23.70;101980.00;;;;5085454;28;20273;-79
2022/05/21 10:30:20;;;;;;;3.88;0.90;;;;;23.70;101989.00;;;;5054266;28;20191;-80
2022/05/21 10:33:08;;;;;;;6.88;1.50;;;;;23.70;101986.00;;;;5072397;28;20699;-80
2022/05/21 10:35:59;;;;;;;5.75;1.20;;;;;23.70;101980.00;;;;5069898;28;20291;-80
2022/05/21 10:38:54;;;;;;;3.97;0.77;;;;;23.70;101982.00;;;;5086149;28;20198;-80
2022/05/21 10:41:39;;;;;;;3.03;0.77;;;;;23.70;101979.00;;;;5087005;28;20260;-79
2022/05/21 10:44:18;;;;;;;4.18;1.23;;;;;23.70;101985.00;;;;5087841;28;20213;-79
2022/05/21 10:46:56;;;;;;;3.15;1.02;;;;;23.80;101986.00;;;;5088247;28;20190;-79
2022/05/21 10:49:39;;;;;;;4.05;0.75;;;;;23.80;101986.00;;;;5080016;28;20199;-79
2022/05/21 10:52:15;;;;;;;7.38;0.98;;;;;23.80;101992.00;;;;5086382;28;20201;-80
2022/05/21 10:55:02;;;;;;;4.82;1.52;;;;;23.80;101995.00;;;;5081057;28;20220;-80
2022/05/21 10:57:51;;;;;;;5.50;1.38;;;;;23.80;101995.00;;;;5075095;28;20267;-80
2022/05/21 11:00:25;;;;;;;5.85;0.85;;;;;23.80;102002.00;;;;5068729;28;20187;-79
2022/05/21 11:03:17;;;;;;;4.60;1.58;;;;;23.80;101998.00;;;;5082282;28;20221;-79
2022/05/21 11:06:08;;;;;;;4.65;1.05;;;;;23.80;102003.00;;;;5087819;28;20247;-79
2022/05/21 11:08:43;;;;;;;2.67;0.85;;;;;23.90;102005.00;;;;5077287;28;20230;-79
2022/05/21 11:11:21;;;;;;;1.98;0.82;;;;;23.90;102006.00;;;;5088026;28;20201;-80
2022/05/21 11:13:57;;;;;;;2.72;1.00;;;;;23.90;102003.00;;;;5088345;28;20190;-80
2022/05/21 11:16:30;;;;;;;3.78;1.13;;;;;23.90;102006.00;;;;5089200;28;20247;-80
2022/05/21 11:19:05;;;;;;;7.18;0.90;;;;;23.80;102009.00;;;;5068896;28;20230;-79
2022/05/21 11:21:40;;;;;;;4.95;1.38;;;;;23.80;102011.00;;;;5086658;28;20285;-80
2022/05/21 11:24:13;;;;;;;6.15;0.88;;;;;23.90;102003.00;;;;5088771;28;20285;-80
2022/05/21 11:26:45;;;;;;;4.50;1.15;;;;;23.90;102008.00;;;;5088239;28;20205;-79
2022/05/21 11:29:17;;;;;;;3.72;0.98;;;;;24.00;102004.00;;;;5087385;28;20226;-80
2022/05/21 11:37:29;;;;;;;4.65;0.73;;;;;24.10;102007.00;;;;5086282;28;20205;-79
2022/05/21 11:39:58;;;;;;;7.88;1.50;;;;;24.10;102005.00;;;;5088347;28;20208;-79
2022/05/21 11:42:28;;;;;;;2.65;1.08;;;;;24.10;102003.00;;;;5082283;28;20194;-79
2022/05/21 11:44:58;;;;;;;7.00;1.25;;;;;24.10;102003.00;;;;5082919;28;20232;-80
2022/05/21 11:47:50;;;;;;;10.18;1.25;;;;;24.00;102001.00;;;;5086897;28;20204;-79
2022/05/21 11:50:22;;;;;;;4.75;1.23;;;;;24.10;102000.00;;;;5087831;28;20194;-78
2022/05/21 11:53:25;;;;;;;7.75;1.40;;;;;24.10;101999.00;;;;5088327;28;20193;-79
2022/05/21 11:56:03;;;;;;;5.65;1.30;;;;;24.20;102000.00;;;;5087721;28;20202;-79
2022/05/21 11:59:17;;;;;;;3.55;0.98;;;;;24.20;101995.00;;;;5088900;28;20218;-78
2022/05/21 12:02:10;;;;;;;2.15;0.90;;;;;24.30;102005.00;;;;5083127;28;20216;-79
2022/05/21 12:04:50;;;;;;;4.20;0.70;;;;;24.30;102006.00;;;;5092210;28;20198;-78
2022/05/21 12:07:56;;;;;;;3.80;1.00;;;;;24.30;102011.00;;;;5092962;28;20194;-78
2022/05/21 12:10:29;;;;;;;3.47;1.00;;;;;24.40;102011.00;;;;5092158;28;20251;-79
2022/05/21 12:13:13;;;;;;;2.85;0.77;;;;;24.30;102014.00;;;;5092666;28;20201;-78
2022/05/21 12:15:43;;;;;;;4.78;1.25;;;;;24.30;102009.00;;;;5092653;28;20210;-78
2022/05/21 12:18:42;;;;;;;2.60;1.30;;;;;24.20;102003.00;;;;5090814;28;20225;-79
2022/05/21 12:21:32;;;;;;;4.57;1.55;;;;;24.30;102003.00;;;;5092273;28;20194;-79
2022/05/21 12:24:05;;;;;;;4.10;1.50;;;;;24.30;102000.00;;;;5090370;28;20216;-79
2022/05/21 12:26:34;;;;;;;4.30;1.75;;;;;24.30;101999.00;;;;5091962;28;20194;-79
2022/05/21 12:29:10;;;;;;;7.10;1.92;;;;;24.20;102001.00;;;;5092281;28;20225;-80
2022/05/21 12:31:42;;;;;;;2.60;1.35;;;;;24.20;102004.00;;;;5092099;28;20209;-80
2022/05/21 12:34:35;;;;;;;2.72;1.60;;;;;24.20;102009.00;;;;5091853;28;20201;-79
2022/05/21 12:37:11;;;;;;;3.20;1.50;;;;;24.20;102009.00;;;;5090060;28;20202;-79
2022/05/21 12:39:51;;;;;;;4.60;1.60;;;;;24.30;102003.00;;;;5092140;28;20194;-79
2022/05/21 12:42:27;;;;;;;4.95;1.40;;;;;24.40;102004.00;;;;5087625;28;20226;-80
2022/05/21 12:44:55;;;;;;;2.60;1.50;;;;;24.40;101996.00;;;;5090842;28;20194;-80
2022/05/21 12:47:27;;;;;;;4.18;1.65;;;;;24.40;101999.00;;;;5083405;28;20582;-80
2022/05/21 12:49:55;;;;;;;3.42;1.30;;;;;24.50;101999.00;;;;5074835;28;20249;-79
2022/05/21 12:52:26;;;;;;;4.32;1.10;;;;;24.50;101991.00;;;;5092179;28;20214;-80
2022/05/21 12:55:21;;;;;;;3.00;1.08;;;;;24.50;101995.00;;;;5091419;28;20195;-80
2022/05/21 12:57:49;;;;;;;2.83;1.00;;;;;24.60;101988.00;;;;5091822;28;20214;-79
2022/05/21 13:00:19;;;;;;;3.05;0.90;;;;;24.60;101986.00;;;;5090908;28;20217;-80
2022/05/21 13:02:49;;;;;;;2.30;1.10;;;;;24.70;101990.00;;;;5086556;28;20556;-79